Time;durP1;ratioP1;P1;durP2;ratioP2;P2;SDS_P1;SDS_P2;PMS_P1;PMS_P2;Temp;Humidity;BMP_temperature;BMP_pressure;BME280_temperature;BME280_humidity;BME280_pressure;Samples;Min_cycle;Max_cycle;Signal;HPM_P1;HPM_P2
2023/07/19 00:02:24;;;;;;;8.27;5.15;;;;;;;19.72;72.70;96476.19;5116027;28;20050;-77
2023/07/19 00:04:51;;;;;;;9.30;5.78;;;;;;;19.68;72.63;96478.50;5116461;28;20051;-77
2023/07/19 00:07:19;;;;;;;6.22;5.15;;;;;;;19.64;72.75;96466.78;5116341;28;20083;-77
2023/07/19 00:09:48;;;;;;;8.43;5.70;;;;;;;19.63;73.13;96472.31;5116164;28;20047;-77
2023/07/19 00:12:15;;;;;;;7.82;5.30;;;;;;;19.59;72.99;96466.72;5119146;28;20052;-76
2023/07/19 00:14:43;;;;;;;7.60;5.32;;;;;;;19.59;73.25;96471.19;5124167;28;20039;-77
2023/07/19 00:17:11;;;;;;;5.03;4.43;;;;;;;19.61;73.46;96459.31;5116134;28;20468;-77
2023/07/19 00:19:39;;;;;;;8.05;5.18;;;;;;;19.63;73.17;96462.53;5116157;28;20407;-77
2023/07/19 00:22:08;;;;;;;10.10;5.45;;;;;;;19.64;73.15;96458.06;5115891;28;20127;-77
2023/07/19 00:24:36;;;;;;;8.02;5.20;;;;;;;19.64;73.29;96469.44;5116355;28;20059;-77
2023/07/19 00:27:05;;;;;;;9.73;4.40;;;;;;;19.69;73.77;96468.69;5116234;28;20051;-77
2023/07/19 00:29:33;;;;;;;9.82;4.57;;;;;;;19.73;73.08;96468.00;5115721;28;20092;-77
2023/07/19 00:32:01;;;;;;;8.07;5.07;;;;;;;19.77;72.79;96468.31;5115708;28;20654;-77
2023/07/19 00:34:28;;;;;;;7.97;4.97;;;;;;;19.78;72.54;96466.47;5116062;28;20047;-77
2023/07/19 00:36:56;;;;;;;6.30;4.53;;;;;;;19.76;73.06;96467.50;5115598;28;20112;-77
2023/07/19 00:39:24;;;;;;;6.45;5.40;;;;;;;19.79;72.96;96465.41;5115462;28;20097;-77
2023/07/19 00:41:51;;;;;;;7.78;4.63;;;;;;;19.80;72.68;96461.75;5115306;28;20044;-77
2023/07/19 00:44:20;;;;;;;8.07;4.68;;;;;;;19.81;72.42;96460.69;5115892;28;20059;-78
2023/07/19 00:46:48;;;;;;;8.30;4.95;;;;;;;19.78;71.99;96464.63;5115734;28;20056;-78
2023/07/19 00:49:16;;;;;;;7.93;5.13;;;;;;;19.68;72.15;96459.97;5114581;28;20052;-77
2023/07/19 00:51:44;;;;;;;9.27;4.63;;;;;;;19.58;72.40;96459.03;5114892;28;20082;-77
2023/07/19 00:54:11;;;;;;;7.25;5.03;;;;;;;19.49;72.78;96453.34;5115399;28;20047;-77
2023/07/19 00:56:42;;;;;;;9.85;5.47;;;;;;;19.46;73.00;96456.44;5115426;28;20075;-77
2023/07/19 00:59:14;;;;;;;6.55;4.82;;;;;;;19.42;72.99;96455.34;5115508;28;20048;-77
2023/07/19 01:01:44;;;;;;;7.13;5.28;;;;;;;19.37;72.95;96449.97;5115110;28;20048;-77
2023/07/19 01:04:12;;;;;;;8.35;5.40;;;;;;;19.33;72.79;96449.66;5118126;28;20047;-77
2023/07/19 01:06:42;;;;;;;7.60;4.88;;;;;;;19.26;72.87;96456.94;5124756;28;20059;-77
2023/07/19 01:09:11;;;;;;;6.38;4.72;;;;;;;19.20;72.89;96461.34;5128185;28;20105;-77
2023/07/19 01:11:38;;;;;;;7.32;5.20;;;;;;;19.14;73.17;96460.47;5117248;28;20043;-77
2023/07/19 01:14:07;;;;;;;6.60;5.15;;;;;;;19.14;73.35;96459.66;5115687;28;20479;-77
2023/07/19 01:16:35;;;;;;;7.63;4.90;;;;;;;19.14;73.22;96452.53;5115274;28;20097;-77
2023/07/19 01:19:05;;;;;;;8.30;5.47;;;;;;;19.14;73.27;96454.38;5114877;28;20598;-77
2023/07/19 01:21:32;;;;;;;6.82;5.22;;;;;;;19.09;73.35;96451.66;5115129;28;20071;-77
2023/07/19 01:24:02;;;;;;;7.18;4.80;;;;;;;19.03;73.46;96458.69;5115372;28;20058;-77
2023/07/19 01:26:30;;;;;;;6.47;4.90;;;;;;;18.98;73.75;96452.50;5115110;28;20051;-77
2023/07/19 01:28:58;;;;;;;5.40;4.43;;;;;;;18.97;73.95;96458.84;5114713;28;20105;-77
2023/07/19 01:31:26;;;;;;;5.95;3.88;;;;;;;19.03;73.84;96457.91;5114314;28;20044;-77
2023/07/19 01:33:54;;;;;;;7.50;4.28;;;;;;;19.04;73.45;96459.47;5114636;28;20047;-77
2023/07/19 01:36:21;;;;;;;7.97;4.18;;;;;;;19.08;73.60;96468.53;5114592;28;20054;-77
2023/07/19 01:38:49;;;;;;;5.22;3.75;;;;;;;19.12;73.55;96464.38;5114623;28;20169;-77
2023/07/19 01:41:19;;;;;;;6.35;4.00;;;;;;;19.17;73.24;96466.31;5114490;28;20101;-77
2023/07/19 01:43:47;;;;;;;5.13;3.38;;;;;;;19.20;72.86;96450.78;5114318;28;20093;-77
2023/07/19 01:46:14;;;;;;;6.70;4.13;;;;;;;19.26;72.60;96452.47;5114792;28;20051;-77
2023/07/19 01:48:42;;;;;;;4.90;3.80;;;;;;;19.33;72.38;96452.31;5114482;28;20434;-77
2023/07/19 01:51:09;;;;;;;6.53;3.50;;;;;;;19.35;72.10;96461.59;5114332;28;20483;-78
2023/07/19 01:53:37;;;;;;;6.53;3.15;;;;;;;19.40;72.36;96454.78;5114252;28;20657;-77
2023/07/19 01:56:05;;;;;;;8.30;4.55;;;;;;;19.43;71.64;96459.59;5114269;28;20399;-77
2023/07/19 01:58:33;;;;;;;3.78;3.38;;;;;;;19.44;71.81;96463.81;5114670;28;20047;-77
2023/07/19 02:01:01;;;;;;;4.85;4.25;;;;;;;19.48;71.34;96454.34;5112645;28;20048;-77
2023/07/19 02:03:29;;;;;;;6.10;3.50;;;;;;;19.51;71.58;96461.84;5114363;28;20105;-77
2023/07/19 02:05:58;;;;;;;5.68;4.32;;;;;;;19.56;71.41;96461.91;5114813;28;20051;-77
2023/07/19 02:08:25;;;;;;;6.30;4.07;;;;;;;19.58;71.09;96459.81;5115034;28;20056;-77
2023/07/19 02:10:54;;;;;;;5.85;3.45;;;;;;;19.62;71.67;96457.50;5113706;28;20048;-77
2023/07/19 02:13:21;;;;;;;8.70;3.88;;;;;;;19.66;70.87;96459.41;5114011;28;20143;-77
2023/07/19 02:15:50;;;;;;;7.70;3.60;;;;;;;19.71;70.66;96458.72;5122044;28;20047;-77
2023/07/19 02:18:18;;;;;;;5.05;4.00;;;;;;;19.72;70.04;96452.34;5115649;28;20055;-77
2023/07/19 02:20:46;;;;;;;4.90;4.15;;;;;;;19.71;69.81;96446.28;5113715;28;20108;-77
2023/07/19 02:23:14;;;;;;;6.40;4.32;;;;;;;19.68;69.88;96456.53;5113953;28;20510;-78
2023/07/19 02:25:42;;;;;;;6.70;3.85;;;;;;;19.64;70.38;96458.84;5113805;28;20527;-77
2023/07/19 02:28:11;;;;;;;8.68;3.58;;;;;;;19.66;70.77;96463.91;5113772;28;20442;-77
2023/07/19 02:30:42;;;;;;;6.05;4.25;;;;;;;19.67;70.42;96461.00;5113389;28;20048;-77
2023/07/19 02:33:12;;;;;;;8.90;4.00;;;;;;;19.69;70.51;96468.69;5113516;28;20089;-77
2023/07/19 02:35:41;;;;;;;5.07;4.10;;;;;;;19.69;69.91;96472.19;5113529;28;20092;-77
2023/07/19 02:38:09;;;;;;;4.43;3.75;;;;;;;19.67;69.98;96473.44;5113574;28;20048;-77
2023/07/19 02:40:37;;;;;;;5.60;3.50;;;;;;;19.61;70.10;96472.53;5113120;28;20494;-77
2023/07/19 02:43:05;;;;;;;6.60;3.63;;;;;;;19.54;70.33;96470.06;5112978;28;20094;-77
2023/07/19 02:45:34;;;;;;;6.28;4.00;;;;;;;19.46;70.83;96472.31;5113400;28;20052;-77
2023/07/19 02:48:02;;;;;;;6.22;3.63;;;;;;;19.46;70.98;96472.31;5113598;28;20050;-77
2023/07/19 02:50:31;;;;;;;5.60;3.40;;;;;;;19.47;71.32;96473.94;5112937;28;20083;-77
2023/07/19 02:52:59;;;;;;;5.10;3.55;;;;;;;19.47;70.87;96463.34;5113002;28;20501;-77
2023/07/19 02:55:26;;;;;;;8.73;4.00;;;;;;;19.41;70.95;96464.31;5112834;28;20051;-77
2023/07/19 02:57:54;;;;;;;5.38;3.45;;;;;;;19.38;71.00;96459.50;5113112;28;20070;-78
2023/07/19 03:00:22;;;;;;;4.55;3.55;;;;;;;19.35;71.09;96466.88;5112991;28;20075;-77
2023/07/19 03:02:53;;;;;;;4.82;3.63;;;;;;;19.33;71.47;96468.97;5113323;28;20044;-77
2023/07/19 03:05:21;;;;;;;3.83;3.17;;;;;;;19.32;71.56;96467.34;5113095;28;20054;-77
2023/07/19 03:07:51;;;;;;;5.75;4.28;;;;;;;19.30;71.31;96466.00;5112724;28;20494;-77
2023/07/19 03:10:19;;;;;;;5.20;3.60;;;;;;;19.29;71.78;96462.56;5112687;28;20101;-77
2023/07/19 03:12:47;;;;;;;6.32;3.80;;;;;;;19.38;71.30;96455.03;5112469;28;20491;-77
2023/07/19 03:15:14;;;;;;;4.63;4.10;;;;;;;19.43;71.02;96468.31;5113019;28;20104;-77
2023/07/19 03:17:42;;;;;;;5.30;3.60;;;;;;;19.46;70.96;96472.31;5112926;28;20595;-77
2023/07/19 03:20:11;;;;;;;5.15;3.67;;;;;;;19.38;70.89;96476.19;5112626;28;20044;-77
2023/07/19 03:22:40;;;;;;;5.28;3.60;;;;;;;19.33;71.23;96476.91;5112794;28;20138;-77
2023/07/19 03:25:10;;;;;;;8.10;4.53;;;;;;;19.28;71.57;96471.50;5112937;28;20079;-77
2023/07/19 03:27:37;;;;;;;7.63;4.00;;;;;;;19.21;71.69;96480.66;5112764;28;20056;-77
2023/07/19 03:30:06;;;;;;;6.85;4.00;;;;;;;19.18;71.91;96476.66;5112560;28;20442;-77
2023/07/19 03:32:34;;;;;;;5.78;4.03;;;;;;;19.13;71.68;96480.03;5112670;28;20126;-77
2023/07/19 03:35:02;;;;;;;6.13;3.92;;;;;;;19.08;72.15;96481.75;5112820;28;20047;-77
2023/07/19 03:37:29;;;;;;;3.97;3.58;;;;;;;19.09;72.20;96484.19;5112422;28;20515;-77
2023/07/19 03:39:57;;;;;;;4.88;3.97;;;;;;;19.07;72.09;96482.81;5112371;28;20493;-77
2023/07/19 03:42:27;;;;;;;5.13;3.53;;;;;;;19.09;72.27;96478.09;5168131;22;20063;-87
2023/07/19 03:44:56;;;;;;;6.35;4.28;;;;;;;19.06;71.95;96479.34;5138837;28;20071;-89
2023/07/19 03:47:25;;;;;;;5.53;4.43;;;;;;;19.01;72.07;96475.84;5139700;28;20078;-88
2023/07/19 03:49:53;;;;;;;5.00;3.70;;;;;;;18.96;72.30;96486.31;5138537;28;20068;-88
2023/07/19 03:52:21;;;;;;;6.35;4.25;;;;;;;18.92;72.44;96494.72;5123344;28;20050;-89
2023/07/19 03:55:00;;;;;;;6.68;3.85;;;;;;;18.90;72.81;96491.50;5117909;28;20052;-89
2023/07/19 03:57:30;;;;;;;6.28;4.25;;;;;;;18.89;72.52;96495.19;5118625;28;20051;-88
2023/07/19 03:59:58;;;;;;;6.57;4.60;;;;;;;18.88;72.55;96500.72;5119261;28;20048;-89
2023/07/19 04:02:27;;;;;;;5.82;3.83;;;;;;;18.90;72.70;96501.28;5120275;28;20055;-89
2023/07/19 04:04:55;;;;;;;5.75;3.72;;;;;;;18.93;72.44;96501.63;5119319;28;20047;-89
2023/07/19 04:07:23;;;;;;;7.85;4.13;;;;;;;18.97;72.20;96501.13;5118676;28;20055;-89
2023/07/19 04:09:51;;;;;;;5.38;4.50;;;;;;;18.96;72.16;96504.81;5118552;28;20058;-85
2023/07/19 04:12:19;;;;;;;5.88;3.97;;;;;;;18.99;72.63;96504.34;5118765;28;20059;-89
2023/07/19 04:14:48;;;;;;;7.97;4.22;;;;;;;19.02;71.90;96515.25;5117934;28;20109;-90
2023/07/19 04:17:16;;;;;;;5.47;3.85;;;;;;;19.00;71.68;96512.06;5118893;28;20055;-89
2023/07/19 04:19:47;;;;;;;8.63;4.68;;;;;;;18.97;71.96;96522.28;5119438;28;20052;-88
2023/07/19 04:22:15;;;;;;;5.05;4.18;;;;;;;18.92;72.24;96521.16;5120091;28;20096;-85
2023/07/19 04:24:44;;;;;;;7.40;4.22;;;;;;;18.87;72.43;96523.72;5123271;28;20071;-88
2023/07/19 04:27:12;;;;;;;5.32;4.30;;;;;;;18.87;72.33;96523.72;5123260;28;20054;-90
2023/07/19 04:29:45;;;;;;;4.32;3.92;;;;;;;18.90;72.76;96522.44;5124369;28;20108;-89
2023/07/19 04:32:14;;;;;;;6.65;3.72;;;;;;;18.93;72.31;96524.59;5124990;28;20044;-89
2023/07/19 04:34:45;;;;;;;6.13;4.30;;;;;;;18.92;72.12;96515.84;5124848;28;20055;-85
2023/07/19 04:37:16;;;;;;;7.68;4.20;;;;;;;18.89;72.25;96516.34;5126613;28;20059;-89
2023/07/19 04:39:45;;;;;;;4.20;3.58;;;;;;;18.84;72.35;96518.09;5125360;28;20604;-88
2023/07/19 04:42:16;;;;;;;6.22;4.53;;;;;;;18.77;72.48;96520.03;5122231;28;20403;-86
2023/07/19 04:44:44;;;;;;;6.78;4.80;;;;;;;18.73;73.01;96517.06;5122039;28;20511;-89
2023/07/19 04:47:14;;;;;;;7.90;4.88;;;;;;;18.74;73.47;96518.66;5126086;28;20464;-88
2023/07/19 04:49:41;;;;;;;10.80;5.13;;;;;;;18.74;73.58;96513.38;5125299;28;20468;-83
2023/07/19 04:52:09;;;;;;;12.10;6.07;;;;;;;18.75;73.50;96520.25;5124810;28;20624;-78
2023/07/19 04:54:37;;;;;;;10.32;5.80;;;;;;;18.77;73.68;96522.69;5123808;28;20121;-78
2023/07/19 04:57:05;;;;;;;10.32;5.93;;;;;;;18.77;73.78;96520.84;5123743;28;20044;-79
2023/07/19 04:59:33;;;;;;;8.30;5.85;;;;;;;18.76;74.16;96516.59;5123658;28;20047;-79
2023/07/19 05:02:01;;;;;;;10.02;6.10;;;;;;;18.78;73.99;96517.16;5124800;28;20052;-78
2023/07/19 05:04:30;;;;;;;13.65;6.32;;;;;;;18.82;73.95;96514.88;5122557;28;20495;-84
2023/07/19 05:07:00;;;;;;;8.82;5.82;;;;;;;18.85;74.25;96515.22;5123613;28;20460;-85
2023/07/19 05:09:29;;;;;;;10.27;6.25;;;;;;;18.87;73.84;96515.78;5123658;28;20059;-86
2023/07/19 05:11:58;;;;;;;10.75;5.68;;;;;;;18.89;74.08;96516.34;5121918;28;20530;-82
2023/07/19 05:14:29;;;;;;;9.25;6.10;;;;;;;18.94;73.89;96513.00;5120901;28;20044;-87
2023/07/19 05:16:57;;;;;;;9.40;6.20;;;;;;;19.00;74.01;96511.22;5122803;28;20432;-85
2023/07/19 05:19:25;;;;;;;7.47;5.57;;;;;;;19.05;74.14;96506.84;5125461;28;20044;-82
2023/07/19 05:21:57;;;;;;;11.52;6.13;;;;;;;19.09;73.29;96509.81;5123193;28;20048;-87
2023/07/19 05:24:26;;;;;;;10.40;5.57;;;;;;;19.15;72.96;96503.56;5123303;28;20317;-85
2023/07/19 05:26:54;;;;;;;8.80;5.28;;;;;;;19.21;73.18;96507.91;5122686;28;20097;-84
2023/07/19 05:29:22;;;;;;;9.50;6.03;;;;;;;19.29;72.57;96504.88;5123325;28;20051;-88
2023/07/19 05:31:50;;;;;;;7.43;5.35;;;;;;;19.34;71.90;96494.38;5123402;28;20048;-88
2023/07/19 05:34:18;;;;;;;11.25;5.78;;;;;;;19.41;71.81;96493.41;5122880;28;20051;-87
2023/07/19 05:36:47;;;;;;;8.98;5.40;;;;;;;19.46;71.50;96488.19;5122663;28;20048;-85
2023/07/19 05:39:17;;;;;;;6.68;4.78;;;;;;;19.51;71.40;96497.03;5124141;28;20052;-85
2023/07/19 05:41:47;;;;;;;6.97;5.93;;;;;;;19.60;70.42;96501.91;5122672;28;20442;-85
2023/07/19 05:44:18;;;;;;;11.73;5.80;;;;;;;19.62;70.09;96500.63;5122281;28;20107;-87
2023/07/19 05:46:46;;;;;;;7.15;5.57;;;;;;;19.64;69.71;96506.47;5124834;28;20129;-87
2023/07/19 05:49:14;;;;;;;9.57;5.60;;;;;;;19.67;69.20;96508.63;5124236;28;20055;-84
2023/07/19 05:51:43;;;;;;;8.32;5.53;;;;;;;19.72;69.34;96502.63;5123691;28;20067;-86
2023/07/19 05:54:11;;;;;;;8.68;5.93;;;;;;;19.79;68.74;96507.75;5120018;28;20082;-85
2023/07/19 05:56:40;;;;;;;8.77;5.15;;;;;;;19.83;68.32;96512.34;5119409;28;20063;-84
2023/07/19 05:59:08;;;;;;;9.63;6.18;;;;;;;19.86;68.37;96509.22;5119146;28;20082;-86
2023/07/19 06:01:37;;;;;;;8.20;5.72;;;;;;;19.90;68.19;96512.97;5119403;28;20048;-86
2023/07/19 06:04:06;;;;;;;11.73;5.82;;;;;;;19.96;67.84;96519.13;5119638;28;20433;-82
2023/07/19 06:06:34;;;;;;;10.75;5.07;;;;;;;20.02;67.66;96523.47;5118875;28;20499;-85
2023/07/19 06:09:05;;;;;;;6.35;4.72;;;;;;;20.10;67.44;96519.59;5118923;28;20051;-84
2023/07/19 06:11:33;;;;;;;5.70;4.00;;;;;;;20.19;67.65;96518.13;5118731;28;20609;-82
2023/07/19 06:14:03;;;;;;;8.65;4.72;;;;;;;20.27;66.42;96524.84;5119914;28;20047;-81
2023/07/19 06:16:31;;;;;;;10.38;4.28;;;;;;;20.35;66.04;96527.06;5119013;28;20051;-82
2023/07/19 06:18:59;;;;;;;5.95;3.97;;;;;;;20.44;65.29;96525.59;5118594;28;20043;-87
2023/07/19 06:21:27;;;;;;;6.90;3.97;;;;;;;20.52;64.83;96527.81;5122756;28;20066;-86
2023/07/19 06:23:55;;;;;;;7.25;4.30;;;;;;;20.62;65.06;96529.00;5124431;28;20048;-87
2023/07/19 06:26:23;;;;;;;7.82;3.70;;;;;;;20.71;64.96;96535.50;5124454;28;20059;-85
2023/07/19 06:28:52;;;;;;;6.72;3.70;;;;;;;20.77;64.28;96532.66;5123746;28;20054;-87
2023/07/19 06:31:22;;;;;;;5.13;3.78;;;;;;;20.83;63.28;96532.72;5123368;28;20058;-81
2023/07/19 06:33:51;;;;;;;6.20;4.35;;;;;;;20.87;62.66;96529.31;5123568;28;20054;-83
2023/07/19 06:36:19;;;;;;;9.07;3.92;;;;;;;20.92;62.78;96523.25;5123356;28;20503;-88
2023/07/19 06:38:48;;;;;;;5.80;3.70;;;;;;;20.99;62.17;96524.66;5122329;28;20047;-85
2023/07/19 06:41:16;;;;;;;4.50;3.42;;;;;;;21.06;62.43;96523.69;5121509;28;20058;-84
2023/07/19 06:43:45;;;;;;;7.30;3.40;;;;;;;21.13;62.04;96524.28;5121319;28;20317;-83
2023/07/19 06:46:13;;;;;;;5.68;3.60;;;;;;;21.23;61.82;96528.84;5124617;28;20059;-86
2023/07/19 06:48:44;;;;;;;8.30;4.05;;;;;;;21.29;60.73;96531.31;5125662;28;20074;-84
2023/07/19 06:51:15;;;;;;;5.28;3.70;;;;;;;21.38;61.62;96531.66;5126678;28;20047;-86
2023/07/19 06:53:43;;;;;;;6.75;3.85;;;;;;;21.45;61.09;96526.16;5125628;28;20043;-90
2023/07/19 06:56:11;;;;;;;4.57;3.25;;;;;;;21.52;61.79;96529.44;5126487;28;20043;-85
2023/07/19 06:58:40;;;;;;;5.28;3.70;;;;;;;21.59;60.56;96524.69;5127618;28;20114;-86
2023/07/19 07:01:08;;;;;;;3.90;3.20;;;;;;;21.66;60.14;96527.13;5128131;28;20081;-87
2023/07/19 07:03:36;;;;;;;5.50;3.50;;;;;;;21.75;60.07;96528.25;5137696;28;20031;-87
2023/07/19 07:06:06;;;;;;;4.53;3.42;;;;;;;21.83;59.83;96534.97;5137980;28;20035;-85
2023/07/19 07:08:34;;;;;;;5.35;3.53;;;;;;;21.90;59.97;96536.31;5130169;28;20492;-88
2023/07/19 07:11:04;;;;;;;3.63;2.92;;;;;;;21.98;59.40;96537.72;5128022;28;20048;-87
2023/07/19 07:13:31;;;;;;;4.15;3.30;;;;;;;22.04;58.73;96536.69;5128455;28;20112;-87
2023/07/19 07:16:00;;;;;;;5.43;3.10;;;;;;;22.13;58.86;96535.16;5127415;28;20499;-85
2023/07/19 07:18:28;;;;;;;4.82;3.38;;;;;;;22.17;58.42;96530.94;5128090;28;20044;-83
2023/07/19 07:20:56;;;;;;;4.90;3.72;;;;;;;22.26;57.94;96535.75;5126031;28;20526;-88
2023/07/19 07:23:25;;;;;;;5.22;3.10;;;;;;;22.32;58.03;96534.75;5126593;28;20051;-86
2023/07/19 07:25:53;;;;;;;10.45;3.97;;;;;;;22.38;58.01;96533.72;5126105;28;20047;-87
2023/07/19 07:28:22;;;;;;;9.70;3.95;;;;;;;22.46;57.57;96543.84;5126442;28;20075;-87
2023/07/19 07:30:50;;;;;;;6.32;3.92;;;;;;;22.52;57.29;96534.84;5126856;28;20058;-87
2023/07/19 07:33:19;;;;;;;5.55;3.58;;;;;;;22.57;56.79;96550.81;5125631;28;20043;-87
2023/07/19 07:35:47;;;;;;;4.70;3.30;;;;;;;22.61;56.88;96541.25;5126597;28;20043;-86
2023/07/19 07:38:15;;;;;;;7.53;3.80;;;;;;;22.68;57.19;96551.66;5125589;28;20052;-87
2023/07/19 07:40:44;;;;;;;5.57;4.00;;;;;;;22.71;57.10;96548.47;5126687;28;20407;-87
2023/07/19 07:43:12;;;;;;;4.88;3.10;;;;;;;22.79;57.02;96552.50;5127606;28;20044;-85
2023/07/19 07:45:40;;;;;;;5.55;4.10;;;;;;;22.87;56.50;96549.34;5127818;28;20073;-84
2023/07/19 07:48:08;;;;;;;5.50;3.65;;;;;;;22.94;55.50;96549.88;5127482;28;20036;-85
2023/07/19 07:50:35;;;;;;;5.38;3.30;;;;;;;23.01;55.54;96549.66;5127198;28;20047;-85
2023/07/19 07:53:03;;;;;;;5.05;3.72;;;;;;;23.11;55.55;96559.53;5127133;28;20078;-84
2023/07/19 07:55:40;;;;;;;4.85;3.75;;;;;;;23.19;55.42;96556.34;5127518;28;20069;-84
2023/07/19 07:58:10;;;;;;;7.00;3.65;;;;;;;23.27;55.14;96558.50;5130135;28;20077;-84
2023/07/19 08:00:38;;;;;;;5.93;3.53;;;;;;;23.36;54.91;96556.13;5130566;28;20111;-86
2023/07/19 08:03:06;;;;;;;5.28;3.47;;;;;;;23.45;53.99;96554.53;5130337;28;20044;-89
2023/07/19 08:05:34;;;;;;;6.85;3.25;;;;;;;23.52;53.34;96555.06;5130811;28;20039;-85
2023/07/19 08:08:04;;;;;;;5.47;3.17;;;;;;;23.60;53.09;96559.06;5129132;28;20051;-86
2023/07/19 08:10:32;;;;;;;5.15;3.45;;;;;;;23.68;53.33;96555.06;5128225;28;20054;-84
2023/07/19 08:13:00;;;;;;;6.22;3.90;;;;;;;23.76;52.59;96549.22;5128075;28;20097;-83
2023/07/19 08:15:29;;;;;;;9.75;3.83;;;;;;;23.83;52.62;96549.75;5127666;28;20525;-85
2023/07/19 08:17:57;;;;;;;6.55;3.35;;;;;;;23.90;52.75;96538.81;5127894;28;20502;-86
2023/07/19 08:20:25;;;;;;;6.50;3.30;;;;;;;23.98;52.36;96532.97;5127221;28;20048;-87
2023/07/19 08:22:53;;;;;;;6.78;3.25;;;;;;;24.04;52.05;96543.34;5127599;28;20047;-83
2023/07/19 08:25:22;;;;;;;4.78;3.67;;;;;;;24.12;52.10;96542.00;5128248;28;20737;-85
2023/07/19 08:27:54;;;;;;;4.60;3.38;;;;;;;24.21;51.91;96535.03;5127826;28;20055;-85
2023/07/19 08:30:23;;;;;;;6.28;3.90;;;;;;;24.31;52.17;96536.09;5127673;28;20059;-86
2023/07/19 08:32:53;;;;;;;4.65;3.92;;;;;;;24.38;51.52;96545.41;5126003;28;20077;-85
2023/07/19 08:35:21;;;;;;;5.70;3.40;;;;;;;24.44;50.86;96544.28;5125277;28;20052;-86
2023/07/19 08:37:49;;;;;;;7.35;3.55;;;;;;;24.52;50.74;96544.84;5125218;28;20070;-83
2023/07/19 08:40:17;;;;;;;4.97;3.55;;;;;;;24.57;50.61;96540.28;5124092;28;20059;-83
2023/07/19 08:42:46;;;;;;;4.00;3.42;;;;;;;24.63;50.31;96530.41;5123884;28;20052;-86
2023/07/19 08:45:14;;;;;;;5.25;3.70;;;;;;;24.70;49.88;96535.44;5124602;28;20111;-85
2023/07/19 08:47:42;;;;;;;6.32;3.70;;;;;;;24.77;50.04;96536.72;5123574;28;20051;-85
2023/07/19 08:50:12;;;;;;;6.18;4.03;;;;;;;24.85;49.71;96527.38;5122287;28;20044;-83
2023/07/19 08:52:40;;;;;;;7.13;4.28;;;;;;;24.91;49.42;96531.59;5122441;28;20048;-87
2023/07/19 08:55:08;;;;;;;5.75;3.50;;;;;;;24.96;49.65;96528.91;5122844;28;20092;-85
2023/07/19 08:57:39;;;;;;;5.82;4.15;;;;;;;25.01;49.51;96531.53;5122519;28;20418;-82
2023/07/19 09:00:08;;;;;;;5.93;3.80;;;;;;;25.09;48.94;96517.59;5121966;28;20107;-82
2023/07/19 09:02:36;;;;;;;4.47;3.60;;;;;;;25.14;49.09;96524.00;5122287;28;20104;-81
2023/07/19 09:05:06;;;;;;;6.32;3.70;;;;;;;25.19;48.82;96515.94;5121494;28;20131;-84
2023/07/19 09:07:37;;;;;;;5.05;3.78;;;;;;;25.25;48.81;96512.19;5121542;28;20069;-83
2023/07/19 09:10:06;;;;;;;6.07;3.95;;;;;;;25.33;48.92;96516.94;5120835;28;20047;-82
2023/07/19 09:12:38;;;;;;;5.85;3.80;;;;;;;25.42;48.32;96519.81;5122216;28;20108;-83
2023/07/19 09:15:07;;;;;;;6.03;3.70;;;;;;;25.51;48.53;96512.00;5122287;28;20071;-83
2023/07/19 09:17:37;;;;;;;6.10;3.60;;;;;;;25.57;47.99;96503.69;5120974;28;20056;-84
2023/07/19 09:20:07;;;;;;;9.57;4.13;;;;;;;25.64;47.76;96496.13;5120340;28;20066;-83
2023/07/19 09:22:37;;;;;;;7.18;3.70;;;;;;;25.74;47.90;96495.25;5121405;28;20047;-83
2023/07/19 09:25:08;;;;;;;14.77;4.80;;;;;;;25.85;48.28;96499.41;5121400;28;20051;-86
2023/07/19 09:27:38;;;;;;;9.00;3.95;;;;;;;25.96;47.44;96491.34;5121508;28;20055;-85
2023/07/19 09:30:09;;;;;;;8.60;3.53;;;;;;;26.07;46.66;96500.84;5120958;28;20043;-83
2023/07/19 09:32:37;;;;;;;;;;;;;;;26.16;46.91;96496.47;5123490;28;20050;-84
2023/07/19 09:35:07;;;;;;;3.72;3.20;;;;;;;26.19;46.11;96495.88;5121829;28;19965;-83
2023/07/19 09:37:37;;;;;;;4.00;3.13;;;;;;;26.23;45.26;96491.56;5121388;28;20043;-86
2023/07/19 09:40:06;;;;;;;4.72;2.92;;;;;;;26.29;44.88;96484.28;5120512;28;20437;-84
2023/07/19 09:42:36;;;;;;;3.85;2.50;;;;;;;26.34;44.51;96478.88;5166196;22;20039;-79
2023/07/19 09:45:06;;;;;;;3.85;2.28;;;;;;;26.39;43.72;96494.88;5156379;27;20052;-79
2023/07/19 09:47:34;;;;;;;4.18;2.38;;;;;;;26.46;42.79;96491.84;5156241;27;20505;-80
2023/07/19 09:50:04;;;;;;;4.18;2.50;;;;;;;26.55;41.31;96494.69;5156231;27;20054;-80
2023/07/19 09:52:38;;;;;;;5.53;2.17;;;;;;;26.62;39.48;96492.47;5140400;27;20047;-80
2023/07/19 09:55:07;;;;;;;3.10;1.83;;;;;;;26.71;40.14;96496.88;5135357;27;20070;-80
2023/07/19 09:57:38;;;;;;;5.47;2.25;;;;;;;26.81;40.19;96495.19;5135332;27;20051;-81
2023/07/19 10:00:07;;;;;;;3.47;1.77;;;;;;;26.89;39.24;96489.97;5135530;27;20054;-80
2023/07/19 10:02:35;;;;;;;4.45;2.00;;;;;;;26.89;37.33;96495.31;5135456;27;20078;-80
2023/07/19 10:05:07;;;;;;;9.27;5.47;;;;;;;26.94;36.48;96497.13;5135161;27;20049;-80
2023/07/19 10:07:36;;;;;;;2.58;2.00;;;;;;;27.01;36.55;96494.88;5135250;27;20054;-80
2023/07/19 10:10:20;;;;;;;;;;;;;;;27.06;35.21;96497.47;5135272;27;20405;-81
2023/07/19 10:12:49;;;;;;;2.65;1.83;;;;;;;27.03;35.67;96494.59;5134900;27;19927;-80
2023/07/19 10:15:18;;;;;;;3.13;2.45;;;;;;;27.05;36.18;96479.84;5135048;27;20043;-81
2023/07/19 10:17:55;;;;;;;3.22;1.95;;;;;;;27.09;35.56;96480.84;5134744;27;20046;-81
2023/07/19 10:20:25;;;;;;;3.83;2.40;;;;;;;27.12;35.91;96477.56;5134095;27;20051;-80
2023/07/19 10:22:55;;;;;;;4.78;2.13;;;;;;;27.17;36.17;96475.91;5134325;27;20495;-81
2023/07/19 10:25:29;;;;;;;2.88;2.22;;;;;;;27.20;35.88;96478.00;5134799;27;20525;-80
2023/07/19 10:28:04;;;;;;;4.43;2.28;;;;;;;27.24;36.62;96469.13;5134588;27;20054;-80
2023/07/19 10:30:53;;;;;;;4.35;2.80;;;;;;;27.32;36.26;96471.13;5134242;27;20122;-80
2023/07/19 10:33:22;;;;;;;3.58;2.30;;;;;;;27.42;35.77;96469.38;5134707;27;20054;-80
2023/07/19 10:35:52;;;;;;;2.83;2.05;;;;;;;27.48;35.39;96470.88;5134799;27;20043;-80
2023/07/19 10:38:22;;;;;;;5.40;2.40;;;;;;;27.51;35.63;96470.31;5134755;27;20099;-81
2023/07/19 10:40:55;;;;;;;2.20;2.00;;;;;;;27.52;35.06;96472.69;5134097;27;20142;-80
2023/07/19 10:43:24;;;;;;;2.88;1.75;;;;;;;27.56;35.13;96470.22;5134493;27;20047;-81
2023/07/19 10:46:12;;;;;;;3.15;2.30;;;;;;;27.48;35.38;96477.03;5134846;27;20425;-80
2023/07/19 10:48:40;;;;;;;3.75;2.58;;;;;;;27.40;35.42;96480.41;5134088;27;20077;-79
2023/07/19 10:51:10;;;;;;;3.08;2.15;;;;;;;27.36;35.65;96474.03;5133997;27;20050;-81
2023/07/19 10:53:42;;;;;;;2.65;2.20;;;;;;;27.39;35.89;96489.50;5133805;27;20468;-80
2023/07/19 10:56:11;;;;;;;4.50;2.30;;;;;;;27.39;36.12;96478.78;5134253;27;20391;-80
2023/07/19 10:58:39;;;;;;;5.05;2.42;;;;;;;27.36;35.85;96468.69;5134014;27;20062;-80
2023/07/19 11:01:07;;;;;;;4.78;2.25;;;;;;;27.30;36.05;96470.63;5143540;27;20026;-80
2023/07/19 11:03:34;;;;;;;3.78;2.10;;;;;;;27.27;35.38;96470.44;5142950;27;20122;-80
2023/07/19 11:06:03;;;;;;;4.30;2.08;;;;;;;27.22;34.84;96465.16;5133553;27;20047;-81
2023/07/19 11:08:32;;;;;;;3.47;1.80;;;;;;;27.24;35.40;96460.28;5133495;27;20465;-80
2023/07/19 11:11:00;;;;;;;5.38;2.00;;;;;;;27.34;35.19;96460.13;5132997;27;20047;-80
2023/07/19 11:13:30;;;;;;;3.53;2.33;;;;;;;27.43;34.97;96469.09;5133483;27;20050;-81
2023/07/19 11:15:59;;;;;;;2.47;1.73;;;;;;;27.53;34.84;96457.44;5133738;27;20461;-81
2023/07/19 11:18:28;;;;;;;5.68;2.38;;;;;;;27.66;34.21;96453.16;5133101;27;20043;-80
2023/07/19 11:20:57;;;;;;;3.28;2.50;;;;;;;27.73;33.84;96458.94;5132621;27;20051;-81
2023/07/19 11:23:25;;;;;;;2.20;2.00;;;;;;;27.79;33.34;96454.28;5133342;27;20485;-81
2023/07/19 11:26:03;;;;;;;5.88;2.10;;;;;;;27.85;33.83;96448.56;5133395;27;20059;-80
2023/07/19 11:28:37;;;;;;;3.58;2.58;;;;;;;27.90;33.36;96440.44;5133490;27;20054;-81
2023/07/19 11:31:05;;;;;;;6.20;2.00;;;;;;;27.93;33.45;96450.56;5132841;27;20467;-81
2023/07/19 11:33:36;;;;;;;4.22;2.10;;;;;;;28.03;34.37;96446.06;5133119;27;20043;-81
2023/07/19 11:36:06;;;;;;;3.63;1.80;;;;;;;28.11;33.46;96445.38;5133299;28;20085;-81
2023/07/19 11:38:34;;;;;;;3.78;1.92;;;;;;;28.18;33.55;96442.31;5133391;28;20079;-81
2023/07/19 11:41:02;;;;;;;5.03;2.20;;;;;;;28.20;33.61;96438.22;5132812;27;20051;-80
2023/07/19 11:43:29;;;;;;;3.47;2.25;;;;;;;28.21;32.95;96450.56;5133001;28;20103;-80